createdAt,value
2022-08-26T00:00:17.089Z,99.99
2022-08-26T00:01:17.130Z,99.99
2022-08-26T00:02:17.079Z,99.99
2022-08-26T00:03:17.081Z,99.99
2022-08-26T00:04:17.098Z,99.99
2022-08-26T00:05:17.041Z,99.99
2022-08-26T00:06:17.032Z,99.99
2022-08-26T00:07:17.052Z,99.99
2022-08-26T00:08:17.022Z,99.99
2022-08-26T00:09:17.007Z,99.99
2022-08-26T00:10:17.010Z,99.99
2022-08-26T00:11:26.621Z,99.99
2022-08-26T00:12:17.988Z,99.99
2022-08-26T00:13:16.968Z,99.99
2022-08-26T00:14:16.923Z,99.99
2022-08-26T00:15:16.914Z,99.99
2022-08-26T00:16:17.148Z,99.99
2022-08-26T00:17:16.893Z,99.99
2022-08-26T00:18:22.246Z,99.99
2022-08-26T00:19:17.922Z,99.99
2022-08-26T00:20:16.918Z,99.99
2022-08-26T00:21:16.872Z,99.99
2022-08-26T00:22:21.603Z,99.99
2022-08-26T00:23:16.884Z,99.99
2022-08-26T00:24:16.817Z,99.99
2022-08-26T00:25:16.834Z,99.99
2022-08-26T00:26:16.791Z,99.99
2022-08-26T00:27:16.780Z,99.99
2022-08-26T00:28:16.805Z,99.99
2022-08-26T00:29:16.778Z,99.99
2022-08-26T00:30:16.758Z,99.99
2022-08-26T00:31:17.804Z,99.99
2022-08-26T00:32:16.742Z,99.99
2022-08-26T00:33:16.747Z,99.99
2022-08-26T00:34:16.849Z,99.99
2022-08-26T00:35:16.801Z,99.99
2022-08-26T00:36:20.289Z,99.99
2022-08-26T00:37:16.739Z,99.99
2022-08-26T00:38:17.012Z,99.99
2022-08-26T00:39:16.671Z,99.99
2022-08-26T00:40:16.699Z,99.99
2022-08-26T00:41:17.011Z,99.99
2022-08-26T00:42:16.632Z,99.99
2022-08-26T00:43:16.984Z,99.99
2022-08-26T00:44:16.625Z,99.99
2022-08-26T00:45:16.598Z,99.99
2022-08-26T00:46:16.686Z,99.99
2022-08-26T00:47:16.584Z,99.99
2022-08-26T00:48:16.650Z,99.99
2022-08-26T00:49:16.569Z,99.99
2022-08-26T00:50:16.590Z,99.99
2022-08-26T00:51:16.528Z,99.99
2022-08-26T00:52:16.584Z,99.99
2022-08-26T00:53:16.532Z,99.99
2022-08-26T00:54:16.558Z,99.99
2022-08-26T00:55:20.276Z,99.99
2022-08-26T00:56:16.533Z,99.99
2022-08-26T00:57:16.772Z,99.99
2022-08-26T00:58:17.344Z,99.99
2022-08-26T00:59:17.218Z,99.99
2022-08-26T01:00:16.461Z,99.99
2022-08-26T01:01:16.575Z,99.99
2022-08-26T01:02:20.745Z,99.99
2022-08-26T01:03:16.436Z,99.99
2022-08-26T01:04:16.443Z,99.99
2022-08-26T01:05:16.424Z,99.99
2022-08-26T01:06:16.392Z,99.99
2022-08-26T01:07:17.170Z,99.99
2022-08-26T01:08:16.354Z,99.99
2022-08-26T01:09:16.352Z,99.99
2022-08-26T01:10:16.330Z,99.99
2022-08-26T01:11:16.609Z,99.99
2022-08-26T01:12:16.335Z,99.99
2022-08-26T01:13:17.311Z,99.99
2022-08-26T01:14:16.310Z,99.99
2022-08-26T01:15:16.264Z,99.99
2022-08-26T01:16:16.318Z,99.99
2022-08-26T01:17:16.249Z,99.99
2022-08-26T01:18:16.273Z,99.99
2022-08-26T01:19:16.280Z,99.99
2022-08-26T01:20:16.223Z,99.99
2022-08-26T01:21:16.213Z,99.99
2022-08-26T01:22:16.204Z,99.99
2022-08-26T01:23:16.205Z,99.99
2022-08-26T01:24:17.033Z,99.99
2022-08-26T01:25:16.164Z,99.99
2022-08-26T01:26:19.943Z,99.99
2022-08-26T01:27:16.128Z,99.99
2022-08-26T01:28:16.435Z,99.99
2022-08-26T01:29:16.144Z,99.99
2022-08-26T01:30:18.065Z,99.99
2022-08-26T01:31:16.174Z,99.99
2022-08-26T01:32:16.075Z,99.99
2022-08-26T01:33:16.388Z,99.99
2022-08-26T01:34:16.078Z,99.99
2022-08-26T01:35:16.060Z,99.99
2022-08-26T01:36:16.036Z,99.99
2022-08-26T01:37:16.217Z,99.99
2022-08-26T01:38:16.008Z,99.99
2022-08-26T01:39:16.328Z,99.99
2022-08-26T01:40:16.812Z,99.99
2022-08-26T01:41:19.593Z,99.99
2022-08-26T01:42:15.993Z,99.99
2022-08-26T01:43:16.493Z,99.99
2022-08-26T01:44:16.741Z,99.99
2022-08-26T01:45:15.979Z,99.99
2022-08-26T01:46:16.031Z,99.99
2022-08-26T01:47:15.932Z,99.99
2022-08-26T01:48:15.921Z,99.99
2022-08-26T01:49:15.919Z,99.99
2022-08-26T01:50:27.721Z,99.99
2022-08-26T01:51:16.923Z,99.99
2022-08-26T01:52:15.861Z,99.99
2022-08-26T01:53:15.853Z,99.99
2022-08-26T01:54:15.844Z,99.99
2022-08-26T01:55:32.274Z,99.99
2022-08-26T01:56:16.852Z,99.99
2022-08-26T01:57:15.988Z,99.99
2022-08-26T01:58:16.125Z,99.99
2022-08-26T01:59:15.786Z,99.99
2022-08-26T02:00:16.148Z,99.99
2022-08-26T02:01:15.881Z,99.99
2022-08-26T02:02:15.767Z,99.99
2022-08-26T02:03:15.737Z,99.99
2022-08-26T02:04:15.794Z,99.99
2022-08-26T02:05:15.714Z,99.99
2022-08-26T02:06:15.824Z,99.99
2022-08-26T02:07:15.710Z,99.99
2022-08-26T02:08:15.686Z,99.99
2022-08-26T02:09:16.678Z,99.99
2022-08-26T02:10:15.669Z,99.99
2022-08-26T02:11:18.322Z,99.99
2022-08-26T02:12:15.647Z,99.99
2022-08-26T02:13:15.980Z,99.99
2022-08-26T02:14:15.649Z,99.99
2022-08-26T02:15:15.611Z,99.99
2022-08-26T02:16:15.675Z,99.99
2022-08-26T02:17:15.587Z,99.99
2022-08-26T02:18:15.579Z,99.99
2022-08-26T02:19:17.016Z,99.99
2022-08-26T02:20:15.581Z,99.99
2022-08-26T02:21:15.548Z,99.99
2022-08-26T02:22:15.531Z,99.99
2022-08-26T02:23:15.521Z,99.99
2022-08-26T02:24:15.543Z,99.99
2022-08-26T02:25:15.503Z,99.99
2022-08-26T02:26:16.279Z,99.99
2022-08-26T02:27:15.479Z,99.99
2022-08-26T02:28:15.480Z,99.99
2022-08-26T02:29:15.455Z,99.99
2022-08-26T02:30:15.485Z,99.99
2022-08-26T02:31:15.510Z,99.99
2022-08-26T02:32:18.559Z,99.99
2022-08-26T02:33:15.414Z,99.99
2022-08-26T02:34:15.412Z,99.99
2022-08-26T02:35:20.251Z,99.99
2022-08-26T02:36:16.509Z,99.99
2022-08-26T02:37:15.380Z,99.99
2022-08-26T02:38:15.370Z,99.99
2022-08-26T02:39:19.567Z,99.99
2022-08-26T02:40:16.399Z,99.99
2022-08-26T02:41:15.327Z,99.99
2022-08-26T02:42:15.340Z,99.99
2022-08-26T02:43:15.299Z,99.99
2022-08-26T02:44:15.301Z,99.99
2022-08-26T02:45:22.973Z,99.99
2022-08-26T02:46:21.448Z,99.99
2022-08-26T02:47:16.688Z,99.99
2022-08-26T02:48:15.258Z,99.99
2022-08-26T02:49:15.229Z,99.99
2022-08-26T02:50:15.273Z,99.99
2022-08-26T02:51:15.220Z,99.99
2022-08-26T02:52:15.206Z,99.99
2022-08-26T02:53:15.221Z,99.99
2022-08-26T02:54:15.180Z,99.99
2022-08-26T02:55:15.187Z,99.99
2022-08-26T02:56:15.176Z,99.99
2022-08-26T02:57:15.910Z,99.99
2022-08-26T02:58:15.143Z,99.99
2022-08-26T02:59:15.173Z,99.99
2022-08-26T03:00:15.143Z,99.99
2022-08-26T03:01:15.211Z,99.99
2022-08-26T03:02:15.152Z,99.99
2022-08-26T03:03:15.454Z,99.99
2022-08-26T03:04:15.247Z,99.99
2022-08-26T03:05:15.063Z,99.99
2022-08-26T03:06:15.825Z,99.99
2022-08-26T03:07:15.082Z,99.99
2022-08-26T03:08:15.067Z,99.99
2022-08-26T03:09:18.468Z,99.99
2022-08-26T03:10:15.037Z,99.99
2022-08-26T03:11:15.047Z,99.99
2022-08-26T03:12:14.984Z,99.99
2022-08-26T03:13:14.997Z,99.99
2022-08-26T03:14:14.978Z,99.99
2022-08-26T03:15:16.497Z,99.99
2022-08-26T03:16:15.037Z,99.99
2022-08-26T03:17:14.949Z,99.99
2022-08-26T03:18:14.947Z,99.99
2022-08-26T03:19:14.929Z,99.99
2022-08-26T03:20:15.541Z,99.99
2022-08-26T03:21:15.199Z,99.99
2022-08-26T03:22:14.920Z,99.99
2022-08-26T03:23:15.691Z,99.99
2022-08-26T03:24:14.873Z,99.99
2022-08-26T03:25:14.870Z,99.99
2022-08-26T03:26:14.893Z,99.99
2022-08-26T03:27:14.841Z,99.99
2022-08-26T03:28:14.818Z,99.99
2022-08-26T03:29:14.813Z,99.99
2022-08-26T03:30:14.842Z,99.99
2022-08-26T03:31:14.844Z,99.99
2022-08-26T03:32:14.854Z,99.99
2022-08-26T03:33:14.774Z,99.99
2022-08-26T03:34:14.755Z,99.99
2022-08-26T03:35:15.293Z,99.99
2022-08-26T03:36:14.740Z,99.99
2022-08-26T03:37:14.776Z,99.99
2022-08-26T03:38:14.715Z,99.99
2022-08-26T03:39:14.711Z,99.99
2022-08-26T03:40:14.721Z,99.99
2022-08-26T03:41:14.687Z,99.99
2022-08-26T03:42:14.690Z,99.99
2022-08-26T03:43:14.716Z,99.99
2022-08-26T03:44:14.657Z,99.99
2022-08-26T03:45:14.677Z,99.99
2022-08-26T03:46:15.466Z,99.99
2022-08-26T03:47:14.773Z,99.99
2022-08-26T03:48:14.596Z,99.99
2022-08-26T03:49:14.606Z,99.99
2022-08-26T03:50:14.918Z,99.99
2022-08-26T03:51:14.587Z,99.99
2022-08-26T03:52:14.621Z,99.99
2022-08-26T03:53:14.559Z,99.99
2022-08-26T03:54:14.542Z,99.99
2022-08-26T03:55:14.548Z,99.99
2022-08-26T03:56:14.535Z,99.99
2022-08-26T03:57:14.523Z,99.99
2022-08-26T03:58:14.492Z,99.99
2022-08-26T03:59:14.482Z,99.99
2022-08-26T04:00:14.472Z,99.99
2022-08-26T04:01:16.293Z,99.99
2022-08-26T04:02:14.961Z,99.99
2022-08-26T04:03:18.524Z,99.99
2022-08-26T04:04:15.644Z,99.99
2022-08-26T04:05:14.424Z,99.99
2022-08-26T04:06:15.190Z,99.99
2022-08-26T04:07:14.439Z,99.99
2022-08-26T04:08:14.489Z,99.99
2022-08-26T04:09:14.385Z,99.99
2022-08-26T04:10:15.478Z,99.99
2022-08-26T04:11:14.354Z,99.99
2022-08-26T04:12:14.368Z,99.99
2022-08-26T04:13:14.336Z,99.99
2022-08-26T04:14:14.326Z,99.99
2022-08-26T04:15:14.445Z,99.99
2022-08-26T04:16:14.333Z,99.99
2022-08-26T04:17:14.409Z,99.99
2022-08-26T04:18:14.356Z,99.99
2022-08-26T04:19:14.277Z,99.99
2022-08-26T04:20:16.125Z,99.99
2022-08-26T04:21:15.225Z,99.99
2022-08-26T04:22:14.260Z,99.99
2022-08-26T04:23:14.217Z,99.99
2022-08-26T04:24:14.216Z,99.99
2022-08-26T04:25:14.221Z,99.99
2022-08-26T04:26:14.208Z,99.99
2022-08-26T04:27:14.198Z,99.99
2022-08-26T04:28:16.020Z,99.99
2022-08-26T04:29:14.158Z,99.99
2022-08-26T04:30:14.148Z,99.99
2022-08-26T04:31:14.191Z,99.99
2022-08-26T04:32:14.182Z,99.99
2022-08-26T04:33:14.929Z,99.99
2022-08-26T04:34:14.311Z,99.99
2022-08-26T04:35:14.125Z,99.99
2022-08-26T04:36:14.081Z,99.99
2022-08-26T04:37:14.093Z,99.99
2022-08-26T04:38:14.064Z,99.99
2022-08-26T04:39:14.041Z,99.99
2022-08-26T04:40:14.124Z,99.99
2022-08-26T04:41:14.847Z,99.99
2022-08-26T04:42:14.061Z,99.99
2022-08-26T04:43:14.308Z,99.99
2022-08-26T04:44:13.996Z,99.99
2022-08-26T04:45:13.988Z,99.99
2022-08-26T04:46:14.007Z,99.99
2022-08-26T04:47:14.026Z,99.99
2022-08-26T04:48:16.704Z,99.99
2022-08-26T04:49:13.928Z,99.99
2022-08-26T04:50:13.939Z,99.99
2022-08-26T04:51:13.932Z,99.99
2022-08-26T04:52:13.909Z,99.99
2022-08-26T04:53:13.935Z,99.99
2022-08-26T04:54:14.120Z,99.99
2022-08-26T04:55:13.891Z,99.99
2022-08-26T04:56:13.899Z,99.99
2022-08-26T04:57:13.881Z,99.99
2022-08-26T04:58:14.169Z,99.99
2022-08-26T04:59:17.000Z,99.99
2022-08-26T05:00:13.822Z,99.99
2022-08-26T05:01:13.885Z,99.99
2022-08-26T05:02:13.851Z,99.99
2022-08-26T05:03:13.792Z,99.99
2022-08-26T05:04:13.826Z,99.99
2022-08-26T05:05:13.762Z,99.99
2022-08-26T05:06:13.772Z,99.99
2022-08-26T05:07:13.761Z,99.99
2022-08-26T05:08:13.761Z,99.99
2022-08-26T05:09:14.542Z,99.99
2022-08-26T05:10:13.714Z,99.99
2022-08-26T05:11:13.702Z,99.99
2022-08-26T05:12:13.715Z,99.99
2022-08-26T05:13:15.574Z,99.99
2022-08-26T05:14:13.694Z,99.99
2022-08-26T05:15:13.663Z,99.99
2022-08-26T05:16:13.686Z,99.99
2022-08-26T05:17:14.819Z,99.99
2022-08-26T05:18:13.669Z,99.99
2022-08-26T05:19:13.739Z,99.99
2022-08-26T05:20:13.606Z,99.99
2022-08-26T05:21:13.629Z,99.99
2022-08-26T05:22:14.397Z,99.99
2022-08-26T05:23:15.187Z,99.99
2022-08-26T05:24:13.571Z,99.99
2022-08-26T05:25:13.578Z,99.99
2022-08-26T05:26:13.888Z,99.99
2022-08-26T05:27:13.544Z,99.99
2022-08-26T05:28:13.570Z,99.99
2022-08-26T05:29:13.574Z,99.99
2022-08-26T05:30:13.510Z,99.99
2022-08-26T05:31:13.568Z,99.99
2022-08-26T05:32:13.480Z,99.99
2022-08-26T05:33:13.469Z,99.99
2022-08-26T05:34:13.463Z,99.99
2022-08-26T05:35:13.440Z,99.99
2022-08-26T05:36:13.441Z,99.99
2022-08-26T05:37:13.725Z,99.99
2022-08-26T05:38:13.403Z,99.99
2022-08-26T05:39:13.411Z,99.99
2022-08-26T05:40:13.459Z,99.99
2022-08-26T05:41:13.382Z,99.99
2022-08-26T05:42:13.394Z,99.99
2022-08-26T05:43:13.409Z,99.99
2022-08-26T05:44:13.935Z,99.99
2022-08-26T05:45:13.330Z,99.99
2022-08-26T05:46:13.404Z,99.99
2022-08-26T05:47:13.354Z,99.99
2022-08-26T05:48:13.317Z,99.99
2022-08-26T05:49:13.316Z,99.99
2022-08-26T05:50:13.295Z,99.99
2022-08-26T05:51:13.258Z,99.99
2022-08-26T05:52:13.285Z,99.99
2022-08-26T05:53:13.255Z,99.99
2022-08-26T05:54:13.239Z,99.99
2022-08-26T05:55:13.206Z,99.99
2022-08-26T05:56:13.207Z,99.99
2022-08-26T05:57:13.299Z,99.99
2022-08-26T05:58:13.198Z,99.99
2022-08-26T05:59:14.357Z,99.99
2022-08-26T06:00:13.207Z,99.99
2022-08-26T06:01:13.214Z,99.99
2022-08-26T06:02:13.159Z,99.99
2022-08-26T06:03:13.273Z,99.99
2022-08-26T06:04:13.129Z,99.99
2022-08-26T06:05:13.109Z,99.99
2022-08-26T06:06:13.108Z,99.99
2022-08-26T06:07:13.261Z,99.99
2022-08-26T06:08:13.162Z,99.99
2022-08-26T06:09:13.491Z,99.99
2022-08-26T06:10:32.443Z,99.99
2022-08-26T06:11:18.430Z,99.99
2022-08-26T06:12:13.051Z,99.99
2022-08-26T06:13:13.175Z,99.99
2022-08-26T06:14:13.124Z,99.99
2022-08-26T06:15:13.004Z,99.99
2022-08-26T06:16:13.024Z,99.99
2022-08-26T06:17:13.047Z,99.99
2022-08-26T06:18:12.985Z,99.99
2022-08-26T06:19:13.020Z,99.99
2022-08-26T06:20:12.976Z,99.99
2022-08-26T06:21:12.966Z,99.99
2022-08-26T06:22:12.969Z,99.99
2022-08-26T06:23:12.925Z,99.99
2022-08-26T06:24:12.984Z,99.99
2022-08-26T06:25:12.916Z,99.99
2022-08-26T06:26:12.886Z,99.99
2022-08-26T06:27:12.887Z,99.99
2022-08-26T06:28:12.870Z,99.99
2022-08-26T06:29:12.907Z,99.99
2022-08-26T06:30:12.847Z,99.99
2022-08-26T06:31:12.896Z,99.99
2022-08-26T06:32:12.830Z,99.99
2022-08-26T06:33:12.828Z,99.99
2022-08-26T06:34:12.831Z,99.99
2022-08-26T06:35:12.814Z,99.99
2022-08-26T06:36:12.777Z,99.99
2022-08-26T06:37:12.778Z,99.99
2022-08-26T06:38:12.816Z,99.99
2022-08-26T06:39:12.811Z,99.99
2022-08-26T06:40:12.928Z,99.99
2022-08-26T06:41:13.072Z,99.99
2022-08-26T06:42:12.711Z,99.99
2022-08-26T06:43:12.711Z,99.99
2022-08-26T06:44:12.754Z,99.99
2022-08-26T06:45:12.689Z,99.99
2022-08-26T06:46:13.099Z,99.99
2022-08-26T06:47:12.662Z,99.99
2022-08-26T06:48:12.653Z,99.99
2022-08-26T06:49:12.636Z,99.99
2022-08-26T06:50:12.624Z,99.99
2022-08-26T06:51:14.432Z,99.99
2022-08-26T06:52:12.607Z,99.99
2022-08-26T06:53:12.614Z,99.99
2022-08-26T06:54:12.590Z,99.99
2022-08-26T06:55:12.586Z,99.99
2022-08-26T06:56:13.645Z,99.99
2022-08-26T06:57:12.558Z,99.99
2022-08-26T06:58:12.547Z,99.99
2022-08-26T06:59:12.590Z,99.99
2022-08-26T07:00:12.568Z,99.99
2022-08-26T07:01:12.587Z,99.99
2022-08-26T07:02:13.555Z,99.99
2022-08-26T07:03:12.536Z,99.99
2022-08-26T07:04:12.479Z,99.99
2022-08-26T07:05:12.464Z,99.99
2022-08-26T07:06:12.459Z,99.99
2022-08-26T07:07:12.469Z,99.99
2022-08-26T07:08:12.421Z,99.99
2022-08-26T07:09:12.430Z,99.99
2022-08-26T07:10:12.424Z,99.99
2022-08-26T07:11:12.399Z,99.99
2022-08-26T07:12:12.398Z,99.99
2022-08-26T07:13:12.383Z,99.99
2022-08-26T07:14:12.369Z,99.99
2022-08-26T07:15:12.352Z,99.99
2022-08-26T07:16:12.563Z,99.99
2022-08-26T07:17:14.251Z,99.99
2022-08-26T07:18:12.402Z,99.99
2022-08-26T07:19:12.321Z,99.99
2022-08-26T07:20:12.293Z,99.99
2022-08-26T07:21:12.341Z,99.99
2022-08-26T07:22:12.321Z,99.99
2022-08-26T07:23:12.344Z,99.99
2022-08-26T07:24:12.271Z,99.99
2022-08-26T07:25:12.294Z,99.99
2022-08-26T07:26:12.313Z,99.99
2022-08-26T07:27:12.281Z,99.99
2022-08-26T07:28:12.223Z,99.99
2022-08-26T07:29:12.217Z,99.99
2022-08-26T07:30:14.779Z,99.99
2022-08-26T07:31:12.272Z,99.99
2022-08-26T07:32:12.217Z,99.99
2022-08-26T07:33:12.447Z,99.99
2022-08-26T07:34:12.186Z,99.99
2022-08-26T07:35:12.545Z,99.99
2022-08-26T07:36:12.147Z,99.99
2022-08-26T07:37:12.139Z,99.99
2022-08-26T07:38:12.389Z,99.99
2022-08-26T07:39:12.121Z,99.99
2022-08-26T07:40:12.164Z,99.99
2022-08-26T07:41:12.107Z,99.99
2022-08-26T07:42:12.129Z,99.99
2022-08-26T07:43:12.099Z,99.99
2022-08-26T07:44:12.041Z,99.99
2022-08-26T07:45:12.103Z,99.99
2022-08-26T07:46:16.296Z,99.99
2022-08-26T07:47:24.610Z,99.99
2022-08-26T07:48:13.014Z,99.99
2022-08-26T07:49:12.041Z,99.99
2022-08-26T07:50:12.299Z,99.99
2022-08-26T07:51:12.004Z,99.99
2022-08-26T07:52:12.286Z,99.99
2022-08-26T07:53:12.334Z,99.99
2022-08-26T07:54:12.083Z,99.99
2022-08-26T07:55:11.966Z,99.99
2022-08-26T07:56:11.993Z,99.99
2022-08-26T07:57:11.926Z,99.99
2022-08-26T07:58:11.911Z,99.99
2022-08-26T07:59:13.774Z,99.99
2022-08-26T08:00:11.878Z,99.99
2022-08-26T08:01:11.917Z,99.99
2022-08-26T08:02:11.901Z,99.99
2022-08-26T08:03:11.857Z,99.99
2022-08-26T08:04:11.824Z,99.99
2022-08-26T08:05:11.893Z,99.99
2022-08-26T08:06:11.802Z,99.99
2022-08-26T08:07:12.004Z,99.99
2022-08-26T08:08:27.207Z,99.99
2022-08-26T08:09:12.767Z,99.99
2022-08-26T08:10:11.837Z,99.99
2022-08-26T08:11:11.748Z,99.99
2022-08-26T08:12:14.218Z,99.99
2022-08-26T08:13:11.786Z,99.99
2022-08-26T08:14:11.954Z,99.99
2022-08-26T08:15:11.700Z,99.99
2022-08-26T08:16:12.780Z,99.99
2022-08-26T08:18:15.480Z,99.99
2022-08-26T08:19:11.684Z,99.99
2022-08-26T08:20:11.666Z,99.99
2022-08-26T08:21:21.825Z,99.99
2022-08-26T08:22:17.563Z,99.99
2022-08-26T08:23:12.623Z,99.99
2022-08-26T08:24:11.621Z,99.99
2022-08-26T08:25:11.602Z,99.99
2022-08-26T08:26:11.591Z,99.99
2022-08-26T08:27:11.593Z,99.99
2022-08-26T08:28:11.583Z,99.99
2022-08-26T08:29:11.554Z,99.99
2022-08-26T08:30:13.766Z,99.99
2022-08-26T08:31:11.624Z,99.99
2022-08-26T08:32:11.696Z,99.99
2022-08-26T08:33:11.565Z,99.99
2022-08-26T08:34:11.485Z,99.99
2022-08-26T08:35:11.715Z,99.99
2022-08-26T08:36:11.473Z,99.99
2022-08-26T08:37:12.483Z,99.99
2022-08-26T08:38:11.484Z,99.99
2022-08-26T08:39:11.455Z,99.99
2022-08-26T08:40:11.522Z,99.99
2022-08-26T08:41:11.511Z,99.99
2022-08-26T08:42:11.409Z,99.99
2022-08-26T08:43:11.439Z,99.99
2022-08-26T08:44:11.486Z,99.99
2022-08-26T08:45:11.381Z,99.99
2022-08-26T08:46:11.428Z,99.99
2022-08-26T08:47:11.350Z,99.99
2022-08-26T08:48:11.453Z,99.99
2022-08-26T08:49:11.330Z,99.99
2022-08-26T08:50:11.330Z,99.99
2022-08-26T08:51:11.329Z,99.99
2022-08-26T08:52:11.475Z,99.99
2022-08-26T08:53:11.331Z,99.99
2022-08-26T08:54:11.329Z,99.99
2022-08-26T08:55:14.819Z,99.99
2022-08-26T08:56:12.307Z,99.99
2022-08-26T08:57:11.252Z,99.99
2022-08-26T08:58:11.411Z,99.99
2022-08-26T08:59:11.551Z,99.99
2022-08-26T09:00:11.241Z,99.99
2022-08-26T09:01:11.219Z,99.99
2022-08-26T09:02:12.084Z,99.99
2022-08-26T09:03:11.191Z,99.99
2022-08-26T09:04:11.197Z,99.99
2022-08-26T09:05:15.122Z,99.99
2022-08-26T09:06:11.176Z,99.99
2022-08-26T09:07:11.136Z,99.99
2022-08-26T09:08:11.604Z,99.99
2022-08-26T09:09:11.133Z,99.99
2022-08-26T09:10:11.155Z,99.99
2022-08-26T09:11:11.105Z,99.99
2022-08-26T09:12:11.098Z,99.99
2022-08-26T09:13:16.899Z,99.99
2022-08-26T09:14:12.843Z,99.99
2022-08-26T09:15:11.120Z,99.99
2022-08-26T09:16:11.049Z,99.99
2022-08-26T09:17:11.103Z,99.99
2022-08-26T09:18:11.132Z,99.99
2022-08-26T09:19:11.011Z,99.99
2022-08-26T09:20:11.036Z,99.99
2022-08-26T09:21:11.018Z,99.99
2022-08-26T09:22:11.143Z,99.99
2022-08-26T09:23:11.000Z,99.99
2022-08-26T09:24:11.296Z,99.99
2022-08-26T09:25:11.111Z,99.99
2022-08-26T09:26:10.962Z,99.99
2022-08-26T09:27:11.448Z,99.99
2022-08-26T09:28:10.911Z,99.99
2022-08-26T09:29:11.731Z,99.99
2022-08-26T09:30:11.513Z,99.99
2022-08-26T09:31:11.433Z,99.99
2022-08-26T09:32:10.874Z,99.99
2022-08-26T09:33:11.427Z,99.99
2022-08-26T09:34:10.853Z,99.99
2022-08-26T09:35:10.844Z,99.99
2022-08-26T09:36:10.824Z,99.99
2022-08-26T09:37:10.846Z,99.99
2022-08-26T09:38:12.192Z,99.99
2022-08-26T09:39:10.796Z,99.99
2022-08-26T09:40:11.943Z,99.99
2022-08-26T09:41:10.835Z,99.99
2022-08-26T09:42:10.766Z,99.99
2022-08-26T09:43:10.756Z,99.99
2022-08-26T09:44:14.629Z,99.99
2022-08-26T09:45:11.076Z,99.99
2022-08-26T09:46:10.927Z,99.99
2022-08-26T09:47:11.163Z,99.99
2022-08-26T09:48:12.504Z,99.99
2022-08-26T09:49:11.687Z,99.99
2022-08-26T09:50:12.608Z,99.99
2022-08-26T09:51:10.689Z,99.99
2022-08-26T09:52:10.688Z,99.99
2022-08-26T09:53:12.929Z,99.99
2022-08-26T09:54:10.651Z,99.99
2022-08-26T09:55:11.662Z,99.99
2022-08-26T09:56:10.641Z,99.99
2022-08-26T09:57:10.612Z,99.99
2022-08-26T09:58:10.779Z,99.99
2022-08-26T09:59:11.071Z,99.99
2022-08-26T10:00:10.602Z,99.99
2022-08-26T10:01:10.595Z,99.99
2022-08-26T10:02:12.104Z,99.99
2022-08-26T10:03:10.715Z,99.99
2022-08-26T10:04:11.056Z,99.99
2022-08-26T10:05:10.533Z,99.99
2022-08-26T10:06:10.514Z,99.99
2022-08-26T10:07:10.512Z,99.99
2022-08-26T10:08:10.474Z,99.99
2022-08-26T10:09:10.937Z,99.99
2022-08-26T10:10:10.525Z,99.99
2022-08-26T10:11:10.466Z,99.99
2022-08-26T10:12:10.457Z,99.99
2022-08-26T10:13:10.656Z,99.99
2022-08-26T10:14:10.429Z,99.99
2022-08-26T10:15:10.482Z,99.99
2022-08-26T10:16:10.764Z,99.99
2022-08-26T10:17:10.395Z,99.99
2022-08-26T10:18:10.573Z,99.99
2022-08-26T10:19:10.355Z,99.99
2022-08-26T10:20:23.609Z,99.99
2022-08-26T10:21:11.336Z,99.99
2022-08-26T10:22:10.339Z,99.99
2022-08-26T10:23:10.576Z,99.99
2022-08-26T10:24:11.290Z,99.99
2022-08-26T10:25:10.327Z,99.99
2022-08-26T10:26:10.280Z,99.99
2022-08-26T10:27:10.271Z,99.99
2022-08-26T10:28:10.471Z,99.99
2022-08-26T10:29:10.253Z,99.99
2022-08-26T10:30:10.244Z,99.99
2022-08-26T10:31:10.262Z,99.99
2022-08-26T10:32:10.313Z,99.99
2022-08-26T10:33:10.514Z,99.99
2022-08-26T10:34:10.201Z,99.99
2022-08-26T10:35:10.190Z,99.99
2022-08-26T10:36:12.324Z,99.99
2022-08-26T10:37:15.580Z,99.99
2022-08-26T10:38:11.153Z,99.99
2022-08-26T10:39:10.154Z,99.99
2022-08-26T10:40:10.210Z,99.99
2022-08-26T10:41:10.619Z,99.99
2022-08-26T10:42:10.148Z,99.99
2022-08-26T10:43:10.968Z,99.99
2022-08-26T10:44:10.126Z,99.99
2022-08-26T10:45:12.007Z,99.99
2022-08-26T10:46:11.105Z,99.99
2022-08-26T10:47:10.149Z,99.99
2022-08-26T10:48:10.341Z,99.99
2022-08-26T10:49:10.111Z,99.99
2022-08-26T10:50:10.056Z,99.99
2022-08-26T10:51:10.018Z,99.99
2022-08-26T10:52:16.351Z,99.99
2022-08-26T10:53:11.004Z,99.99
2022-08-26T10:54:09.991Z,99.99
2022-08-26T10:55:10.258Z,99.99
2022-08-26T10:56:18.671Z,99.99
2022-08-26T10:57:10.988Z,99.99
2022-08-26T10:58:11.650Z,99.99
2022-08-26T10:59:12.265Z,99.99
2022-08-26T11:00:09.934Z,99.99
2022-08-26T11:01:10.479Z,99.99
2022-08-26T11:02:09.917Z,99.99
2022-08-26T11:03:21.817Z,99.99
2022-08-26T11:04:11.712Z,99.99
2022-08-26T11:05:10.430Z,99.99
2022-08-26T11:06:10.242Z,99.99
2022-08-26T11:07:09.864Z,99.99
2022-08-26T11:08:10.101Z,99.99
2022-08-26T11:09:09.903Z,99.99
2022-08-26T11:10:09.825Z,99.99
2022-08-26T11:11:09.803Z,99.99
2022-08-26T11:12:10.108Z,99.99
2022-08-26T11:13:09.871Z,99.99
2022-08-26T11:14:09.763Z,99.99
2022-08-26T11:15:09.768Z,99.99
2022-08-26T11:16:09.798Z,99.99
2022-08-26T11:17:09.766Z,99.99
2022-08-26T11:18:09.918Z,99.99
2022-08-26T11:19:09.713Z,99.99
2022-08-26T11:20:13.712Z,99.99
2022-08-26T11:21:10.696Z,99.99
2022-08-26T11:22:09.706Z,99.99
2022-08-26T11:23:09.672Z,99.99
2022-08-26T11:24:09.756Z,99.99
2022-08-26T11:25:11.755Z,99.99
2022-08-26T11:26:09.651Z,99.99
2022-08-26T11:27:10.398Z,99.99
2022-08-26T11:28:09.747Z,99.99
2022-08-26T11:29:13.293Z,99.99
2022-08-26T11:30:09.595Z,99.99
2022-08-26T11:31:09.683Z,99.99
2022-08-26T11:32:09.570Z,99.99
2022-08-26T11:33:09.711Z,99.99
2022-08-26T11:34:11.021Z,99.99
2022-08-26T11:35:09.541Z,99.99
2022-08-26T11:36:12.300Z,99.99
2022-08-26T11:37:09.556Z,99.99
2022-08-26T11:38:09.706Z,99.99
2022-08-26T11:39:09.543Z,99.99
2022-08-26T11:40:09.528Z,99.85
2022-08-26T11:41:09.484Z,99.95
2022-08-26T11:42:09.470Z,99.99
2022-08-26T11:43:09.504Z,99.99
2022-08-26T11:44:09.483Z,99.99
2022-08-26T11:45:09.447Z,99.99
2022-08-26T11:46:09.478Z,99.99
2022-08-26T11:47:11.472Z,99.60
2022-08-26T11:48:09.621Z,99.21
2022-08-26T11:49:09.491Z,99.30
2022-08-26T11:50:09.485Z,99.51
2022-08-26T11:51:09.395Z,99.30
2022-08-26T11:52:09.467Z,99.21
2022-08-26T11:53:09.345Z,99.21
2022-08-26T11:54:09.350Z,99.21
2022-08-26T11:55:09.365Z,98.71
2022-08-26T11:56:09.330Z,98.71
2022-08-26T11:57:11.749Z,98.61
2022-08-26T11:58:09.445Z,98.50
2022-08-26T11:59:09.333Z,98.41
2022-08-26T12:00:12.458Z,98.71
2022-08-26T12:01:11.528Z,98.91
2022-08-26T12:02:09.248Z,99.10
2022-08-26T12:03:09.497Z,99.10
2022-08-26T12:04:09.371Z,99.10
2022-08-26T12:05:09.250Z,99.21
2022-08-26T12:06:09.214Z,99.30
2022-08-26T12:07:10.220Z,99.26
2022-08-26T12:08:09.672Z,99.35
2022-08-26T12:09:09.211Z,99.70
2022-08-26T12:10:09.172Z,99.99
2022-08-26T12:11:09.164Z,99.99
2022-08-26T12:12:09.140Z,99.80
2022-08-26T12:13:09.136Z,99.70
2022-08-26T12:14:09.153Z,99.70
2022-08-26T12:15:09.188Z,99.60
2022-08-26T12:16:09.488Z,99.80
2022-08-26T12:17:09.852Z,99.99
2022-08-26T12:18:09.190Z,99.90
2022-08-26T12:19:09.095Z,99.90
2022-08-26T12:20:09.477Z,99.99
2022-08-26T12:21:09.080Z,99.90
2022-08-26T12:22:09.054Z,99.70
2022-08-26T12:23:09.023Z,99.51
2022-08-26T12:24:09.024Z,99.40
2022-08-26T12:25:09.018Z,99.40
2022-08-26T12:26:10.385Z,99.30
2022-08-26T12:27:08.984Z,99.55
2022-08-26T12:28:09.208Z,99.66
2022-08-26T12:29:12.840Z,99.66
2022-08-26T12:30:09.963Z,99.66
2022-08-26T12:31:08.952Z,99.36
2022-08-26T12:32:08.939Z,99.76
2022-08-26T12:33:22.288Z,99.96
2022-08-26T12:34:11.695Z,99.96
2022-08-26T12:35:10.038Z,99.96
2022-08-26T12:36:09.203Z,99.99
2022-08-26T12:37:08.870Z,99.99
2022-08-26T12:38:08.953Z,99.99
2022-08-26T12:39:08.856Z,99.71
2022-08-26T12:40:08.929Z,99.51
2022-08-26T12:41:08.860Z,99.61
2022-08-26T12:42:08.843Z,99.21
2022-08-26T12:43:08.818Z,99.21
2022-08-26T12:44:08.801Z,99.71
2022-08-26T12:45:08.812Z,99.41
2022-08-26T12:46:08.784Z,99.06
2022-08-26T12:47:08.786Z,98.86
2022-08-26T12:48:08.929Z,98.36
2022-08-26T12:49:08.745Z,98.36
2022-08-26T12:50:08.769Z,98.36
2022-08-26T12:51:08.726Z,98.77
2022-08-26T12:52:08.716Z,97.97
2022-08-26T12:53:08.712Z,98.07